createdAt,value
2023-02-26T00:01:47.002Z,69.34
2023-02-26T00:04:15.187Z,69.32
2023-02-26T00:06:53.080Z,69.28
2023-02-26T00:09:23.002Z,69.08
2023-02-26T00:11:51.658Z,69.15
2023-02-26T00:14:24.029Z,69.23
2023-02-26T00:17:14.982Z,69.22
2023-02-26T00:19:47.930Z,69.19
2023-02-26T00:22:16.827Z,69.28
2023-02-26T00:24:45.091Z,69.36
2023-02-26T00:27:14.805Z,69.25
2023-02-26T00:29:43.561Z,69.11
2023-02-26T00:32:12.223Z,68.94
2023-02-26T00:34:42.684Z,68.90
2023-02-26T00:37:33.838Z,68.99
2023-02-26T00:40:35.214Z,69.06
2023-02-26T00:43:06.579Z,69.01
2023-02-26T00:45:36.332Z,69.05
2023-02-26T00:48:28.570Z,69.03
2023-02-26T00:51:03.131Z,68.99
2023-02-26T00:53:39.571Z,68.85
2023-02-26T00:56:09.302Z,68.70
2023-02-26T00:58:38.777Z,68.69
2023-02-26T01:01:07.167Z,68.78
2023-02-26T01:03:36.667Z,68.67
2023-02-26T01:06:05.634Z,68.67
2023-02-26T01:08:48.072Z,68.72
2023-02-26T01:11:17.910Z,68.73
2023-02-26T01:13:46.738Z,68.76
2023-02-26T01:16:24.587Z,68.54
2023-02-26T01:19:09.536Z,68.40
2023-02-26T01:21:38.535Z,68.36
2023-02-26T01:24:08.825Z,68.41
2023-02-26T01:26:37.352Z,68.39
2023-02-26T01:29:06.744Z,68.27
2023-02-26T01:31:38.861Z,68.13
2023-02-26T01:34:20.393Z,68.13
2023-02-26T01:36:54.640Z,68.15
2023-02-26T01:39:36.417Z,68.12
2023-02-26T01:42:21.784Z,67.93
2023-02-26T01:45:03.652Z,67.84
2023-02-26T01:47:55.589Z,67.79
2023-02-26T01:50:30.139Z,67.75
2023-02-26T01:52:59.487Z,67.66
2023-02-26T01:55:27.818Z,67.42
2023-02-26T01:57:57.617Z,67.39
2023-02-26T02:00:25.877Z,67.56
2023-02-26T02:02:55.156Z,67.65
2023-02-26T02:05:35.982Z,67.69
2023-02-26T02:08:05.490Z,67.53
2023-02-26T02:10:33.972Z,67.42
2023-02-26T02:13:40.436Z,67.29
2023-02-26T02:16:21.043Z,67.12
2023-02-26T02:19:14.368Z,67.12
2023-02-26T02:22:25.232Z,67.03
2023-02-26T02:25:27.771Z,67.12
2023-02-26T02:28:06.539Z,67.17
2023-02-26T02:30:59.773Z,67.26
2023-02-26T02:33:31.772Z,67.21
2023-02-26T02:36:03.363Z,67.14
2023-02-26T02:38:34.869Z,66.99
2023-02-26T02:41:11.620Z,66.76
2023-02-26T02:43:41.356Z,66.68
2023-02-26T02:46:16.620Z,66.69
2023-02-26T02:49:08.427Z,66.69
2023-02-26T02:51:44.936Z,66.73
2023-02-26T02:54:17.027Z,66.79
2023-02-26T02:57:01.267Z,66.85
2023-02-26T02:59:36.594Z,66.95
2023-02-26T03:02:23.293Z,66.92
2023-02-26T03:04:52.065Z,66.72
2023-02-26T03:07:20.231Z,66.61
2023-02-26T03:09:53.020Z,66.61
2023-02-26T03:12:21.600Z,66.61
2023-02-26T03:14:55.504Z,66.62
2023-02-26T03:17:40.296Z,66.65
2023-02-26T03:20:17.164Z,66.52
2023-02-26T03:23:19.951Z,66.45
2023-02-26T03:26:12.019Z,66.44
2023-02-26T03:28:52.286Z,66.54
2023-02-26T03:31:25.307Z,66.52
2023-02-26T03:34:02.712Z,66.54
2023-02-26T03:36:36.105Z,66.43
2023-02-26T03:39:20.286Z,66.29
2023-02-26T03:41:55.104Z,66.20
2023-02-26T03:44:37.395Z,66.23
2023-02-26T03:47:07.648Z,66.24
2023-02-26T03:49:40.399Z,66.23
2023-02-26T03:52:08.503Z,66.20
2023-02-26T03:55:20.166Z,66.09
2023-02-26T03:58:04.416Z,66.21
2023-02-26T04:00:42.761Z,66.25
2023-02-26T04:03:16.466Z,66.31
2023-02-26T04:05:48.199Z,66.14
2023-02-26T04:08:17.041Z,66.02
2023-02-26T04:11:06.610Z,66.02
2023-02-26T04:13:35.962Z,66.18
2023-02-26T04:16:05.927Z,66.13
2023-02-26T04:18:34.996Z,66.35
2023-02-26T04:21:03.968Z,66.41
2023-02-26T04:23:32.199Z,66.49
2023-02-26T04:26:00.723Z,66.48
2023-02-26T04:28:30.434Z,66.52
2023-02-26T04:31:00.142Z,66.50
2023-02-26T04:33:28.826Z,66.59
2023-02-26T04:35:57.514Z,66.55
2023-02-26T04:38:26.572Z,66.33
2023-02-26T04:40:55.089Z,66.05
2023-02-26T04:43:23.365Z,65.96
2023-02-26T04:45:59.661Z,65.85
2023-02-26T04:48:28.113Z,65.83
2023-02-26T04:50:56.495Z,65.80
2023-02-26T04:53:24.970Z,65.81
2023-02-26T04:55:53.349Z,65.88
2023-02-26T04:58:24.011Z,65.97
2023-02-26T05:00:53.891Z,65.99
2023-02-26T05:03:22.188Z,66.14
2023-02-26T05:05:50.459Z,66.12
2023-02-26T05:08:19.756Z,66.07
2023-02-26T05:10:51.230Z,66.16
2023-02-26T05:13:20.207Z,66.04
2023-02-26T05:15:48.866Z,66.09
2023-02-26T05:18:18.295Z,66.21
2023-02-26T05:20:55.661Z,66.06
2023-02-26T05:23:23.958Z,66.06
2023-02-26T05:25:55.620Z,66.12
2023-02-26T05:28:27.900Z,66.05
2023-02-26T05:30:57.740Z,66.10
2023-02-26T05:33:26.792Z,66.13
2023-02-26T05:35:55.275Z,66.22
2023-02-26T05:38:23.754Z,66.12
2023-02-26T05:40:56.558Z,65.97
2023-02-26T05:43:25.585Z,65.87
2023-02-26T05:45:54.117Z,65.83
2023-02-26T05:48:24.339Z,65.82
2023-02-26T05:50:52.717Z,65.74
2023-02-26T05:53:21.105Z,65.70
2023-02-26T05:55:49.375Z,65.79
2023-02-26T05:58:21.161Z,65.79
2023-02-26T06:00:50.542Z,65.93
2023-02-26T06:03:19.930Z,65.81
2023-02-26T06:05:48.832Z,65.74
2023-02-26T06:08:18.227Z,65.64
2023-02-26T06:10:46.411Z,65.52
2023-02-26T06:13:14.788Z,65.53
2023-02-26T06:15:43.266Z,65.76
2023-02-26T06:18:11.644Z,65.72
2023-02-26T06:20:39.920Z,65.75
2023-02-26T06:23:08.356Z,65.72
2023-02-26T06:25:36.679Z,65.91
2023-02-26T06:28:06.398Z,65.77
2023-02-26T06:30:35.048Z,65.74
2023-02-26T06:33:03.458Z,65.78
2023-02-26T06:35:31.964Z,65.73
2023-02-26T06:38:00.600Z,65.50
2023-02-26T06:40:29.212Z,65.43
2023-02-26T06:42:57.488Z,65.36
2023-02-26T06:45:26.174Z,65.43
2023-02-26T06:47:54.349Z,65.38
2023-02-26T06:50:23.654Z,65.42
2023-02-26T06:52:52.959Z,65.41
2023-02-26T06:55:27.275Z,65.52
2023-02-26T06:57:55.704Z,65.59
2023-02-26T07:00:24.851Z,65.66
2023-02-26T07:02:53.329Z,65.63
2023-02-26T07:05:26.752Z,65.46
2023-02-26T07:07:56.705Z,65.32
2023-02-26T07:10:25.550Z,65.13
2023-02-26T07:12:53.739Z,65.11
2023-02-26T07:15:22.194Z,65.11
2023-02-26T07:17:53.459Z,64.80
2023-02-26T07:20:23.034Z,64.87
2023-02-26T07:22:51.922Z,64.62
2023-02-26T07:25:20.110Z,64.68
2023-02-26T07:27:48.490Z,64.79
2023-02-26T07:30:17.277Z,64.75
2023-02-26T07:32:45.594Z,64.42
2023-02-26T07:35:13.728Z,64.25
2023-02-26T07:37:43.024Z,64.06
2023-02-26T07:40:12.099Z,63.89
2023-02-26T07:42:41.878Z,64.02
2023-02-26T07:45:10.414Z,64.07
2023-02-26T07:47:39.507Z,63.86
2023-02-26T07:50:09.019Z,63.69
2023-02-26T07:52:37.090Z,63.57
2023-02-26T07:55:08.543Z,63.64
2023-02-26T07:57:36.939Z,63.63
2023-02-26T08:00:08.233Z,63.62
2023-02-26T08:02:41.663Z,63.45
2023-02-26T08:05:09.938Z,63.48
2023-02-26T08:07:38.112Z,63.39
2023-02-26T08:10:08.644Z,63.11
2023-02-26T08:12:36.952Z,63.03
2023-02-26T08:15:14.449Z,62.77
2023-02-26T08:17:43.550Z,62.59
2023-02-26T08:20:14.491Z,62.93
2023-02-26T08:22:42.794Z,62.75
2023-02-26T08:25:11.203Z,62.44
2023-02-26T08:27:40.241Z,62.51
2023-02-26T08:30:11.952Z,62.69
2023-02-26T08:32:42.690Z,62.38
2023-02-26T08:35:12.128Z,62.16
2023-02-26T08:37:41.086Z,61.91
2023-02-26T08:40:09.859Z,61.65
2023-02-26T08:42:38.057Z,61.85
2023-02-26T08:45:07.146Z,61.53
2023-02-26T08:47:39.368Z,61.31
2023-02-26T08:50:08.569Z,61.31
2023-02-26T08:52:37.120Z,61.36
2023-02-26T08:55:07.426Z,60.89
2023-02-26T08:57:36.260Z,60.56
2023-02-26T09:00:06.642Z,60.38
2023-02-26T09:02:38.582Z,60.59
2023-02-26T09:05:10.104Z,60.57
2023-02-26T09:07:39.153Z,60.35
2023-02-26T09:10:08.862Z,60.23
2023-02-26T09:12:38.472Z,59.63
2023-02-26T09:15:08.794Z,59.13
2023-02-26T09:17:37.586Z,59.29
2023-02-26T09:20:06.553Z,59.59
2023-02-26T09:22:38.444Z,59.52
2023-02-26T09:25:07.227Z,59.76
2023-02-26T09:27:36.440Z,59.48
2023-02-26T09:30:06.133Z,58.86
2023-02-26T09:32:35.513Z,58.76
2023-02-26T09:35:05.870Z,58.91
2023-02-26T09:37:35.428Z,58.90
2023-02-26T09:40:06.113Z,58.93
2023-02-26T09:42:42.815Z,58.40
2023-02-26T09:45:26.999Z,58.80
2023-02-26T09:47:55.521Z,58.80
2023-02-26T09:50:42.836Z,58.69
2023-02-26T09:53:22.098Z,58.47
2023-02-26T09:55:51.175Z,58.69
2023-02-26T09:58:27.055Z,58.74
2023-02-26T10:00:58.163Z,58.33
2023-02-26T10:03:45.101Z,57.38
2023-02-26T10:07:02.308Z,56.98
2023-02-26T10:09:58.551Z,57.10
2023-02-26T10:12:28.558Z,57.10
2023-02-26T10:14:59.439Z,56.81
2023-02-26T10:18:02.593Z,56.24
2023-02-26T10:20:36.814Z,56.37
2023-02-26T10:34:57.227Z,56.05
2023-02-26T10:37:48.387Z,54.98
2023-02-26T10:40:23.214Z,55.01
2023-02-26T10:42:58.519Z,55.07
2023-02-26T10:45:52.983Z,55.51
2023-02-26T10:48:39.452Z,55.46
2023-02-26T10:51:18.623Z,55.22
2023-02-26T10:53:52.883Z,55.37
2023-02-26T10:56:26.690Z,54.98
2023-02-26T10:58:55.070Z,54.23
2023-02-26T11:01:26.508Z,54.15
2023-02-26T11:04:03.619Z,53.84
2023-02-26T11:06:35.223Z,53.81
2023-02-26T11:09:04.267Z,54.25
2023-02-26T11:11:52.172Z,54.35
2023-02-26T11:14:21.876Z,54.13
2023-02-26T11:16:53.273Z,53.85
2023-02-26T11:19:52.230Z,53.70
2023-02-26T11:22:20.571Z,53.44
2023-02-26T11:24:49.742Z,53.41
2023-02-26T11:27:24.372Z,53.64
2023-02-26T11:30:00.226Z,53.80
2023-02-26T11:32:32.390Z,53.90
2023-02-26T11:35:08.173Z,53.90
2023-02-26T11:37:39.080Z,53.88
2023-02-26T11:40:24.358Z,53.85
2023-02-26T11:42:58.583Z,53.78
2023-02-26T11:45:26.769Z,53.60
2023-02-26T11:48:02.418Z,53.29
2023-02-26T11:50:31.258Z,53.49
2023-02-26T11:53:06.114Z,53.49
2023-02-26T11:55:38.608Z,53.05
2023-02-26T11:58:18.339Z,53.30
2023-02-26T12:00:47.452Z,53.51
2023-02-26T12:03:22.211Z,53.29
2023-02-26T12:05:53.289Z,53.18
2023-02-26T12:08:28.853Z,53.12
2023-02-26T12:11:07.365Z,53.11
2023-02-26T12:13:42.863Z,53.15
2023-02-26T12:16:20.467Z,53.22
2023-02-26T12:18:56.572Z,53.41
2023-02-26T12:21:36.864Z,53.15
2023-02-26T12:24:26.997Z,52.96
2023-02-26T12:27:18.935Z,52.91
2023-02-26T12:29:47.842Z,53.03
2023-02-26T12:32:46.959Z,52.98
2023-02-26T12:35:33.964Z,53.13
2023-02-26T12:38:07.903Z,53.38
2023-02-26T12:41:11.274Z,53.54
2023-02-26T12:43:45.318Z,53.38
2023-02-26T12:46:34.328Z,53.20
2023-02-26T12:49:17.604Z,53.41
2023-02-26T12:52:16.723Z,53.24
2023-02-26T12:55:02.365Z,53.25
2023-02-26T12:58:02.432Z,53.28
2023-02-26T13:00:30.774Z,53.25
2023-02-26T13:03:10.813Z,53.15
2023-02-26T13:06:10.020Z,53.24
2023-02-26T13:08:45.052Z,53.06
2023-02-26T13:11:38.416Z,52.79
2023-02-26T13:14:30.557Z,52.58
2023-02-26T13:17:19.144Z,52.70
2023-02-26T13:19:51.406Z,53.03
2023-02-26T13:22:35.055Z,53.28
2023-02-26T13:25:26.748Z,53.21
2023-02-26T13:27:55.218Z,52.75
2023-02-26T13:30:31.123Z,52.61
2023-02-26T13:33:00.091Z,52.65
2023-02-26T13:35:38.538Z,52.57
2023-02-26T13:38:19.088Z,52.47
2023-02-26T13:41:04.878Z,52.30
2023-02-26T13:44:02.805Z,52.44
2023-02-26T13:46:48.038Z,52.65
2023-02-26T13:49:38.168Z,52.66
2023-02-26T13:52:06.293Z,52.74
2023-02-26T13:54:45.196Z,52.81
2023-02-26T13:57:32.395Z,52.70
2023-02-26T14:00:22.039Z,52.47
2023-02-26T14:02:55.688Z,52.51
2023-02-26T14:05:28.656Z,52.63
2023-02-26T14:08:41.482Z,52.80
2023-02-26T14:11:18.252Z,52.78
2023-02-26T14:14:22.677Z,52.66
2023-02-26T14:17:08.027Z,52.74
2023-02-26T14:19:38.275Z,53.05
2023-02-26T14:22:28.671Z,52.93
2023-02-26T14:24:58.830Z,52.85
2023-02-26T14:30:48.792Z,53.75
2023-02-26T14:33:18.271Z,53.54
2023-02-26T14:35:49.214Z,53.26
2023-02-26T14:40:19.139Z,53.48
2023-02-26T14:42:58.891Z,53.44
2023-02-26T14:45:37.304Z,53.55
2023-02-26T14:48:21.661Z,53.71
2023-02-26T14:51:20.088Z,53.67
2023-02-26T14:54:26.813Z,53.89
2023-02-26T14:57:37.073Z,54.09
2023-02-26T15:00:13.048Z,54.14
2023-02-26T15:03:09.133Z,54.12
2023-02-26T15:05:41.328Z,54.11
2023-02-26T15:08:13.293Z,54.40
2023-02-26T15:10:57.649Z,54.42
2023-02-26T15:13:31.613Z,54.34
2023-02-26T15:16:21.882Z,54.22
2023-02-26T15:19:09.885Z,54.27
2023-02-26T15:22:09.706Z,54.40
2023-02-26T15:24:38.080Z,54.55
2023-02-26T15:27:07.422Z,54.67
2023-02-26T15:29:37.420Z,54.63
2023-02-26T15:32:27.440Z,54.82
2023-02-26T15:34:59.820Z,54.85
2023-02-26T15:37:33.599Z,54.85
2023-02-26T15:40:06.652Z,55.09
2023-02-26T15:42:38.624Z,55.19
2023-02-26T15:45:22.354Z,55.32
2023-02-26T15:47:54.232Z,55.44
2023-02-26T15:50:26.001Z,55.50
2023-02-26T15:52:56.911Z,55.58
2023-02-26T15:55:25.084Z,55.61
2023-02-26T15:57:54.844Z,55.47
2023-02-26T16:00:26.358Z,55.39
2023-02-26T16:02:57.498Z,55.40
2023-02-26T16:05:26.280Z,55.33
2023-02-26T16:07:55.271Z,55.48
2023-02-26T16:10:41.164Z,55.54
2023-02-26T16:13:14.273Z,55.69
2023-02-26T16:15:47.507Z,55.68
2023-02-26T16:18:18.623Z,55.67
2023-02-26T16:20:49.219Z,55.75
2023-02-26T16:23:21.283Z,55.79
2023-02-26T16:25:56.104Z,55.78
2023-02-26T16:28:32.033Z,55.86
2023-02-26T16:31:02.717Z,55.95
2023-02-26T16:33:34.659Z,55.99
2023-02-26T16:36:06.098Z,55.92
